Time;durP1;ratioP1;P1;durP2;ratioP2;P2;SDS_P1;SDS_P2;PMS_P1;PMS_P2;Temp;Humidity;BMP_temperature;BMP_pressure;BME280_temperature;BME280_humidity;BME280_pressure;Samples;Min_cycle;Max_cycle;Signal;HPM_P1;HPM_P2
2022/05/24 00:02:14;;;;;;;11.07;9.93;;;16.10;99.90;;;;;;5015459;28;20037;-51
2022/05/24 00:04:39;;;;;;;12.60;9.93;;;16.00;99.90;;;;;;5033803;28;20065;-54
2022/05/24 00:07:05;;;;;;;16.40;12.65;;;15.90;99.90;;;;;;5033269;28;20498;-52
2022/05/24 00:09:30;;;;;;;16.17;13.07;;;15.80;99.90;;;;;;5033549;28;20025;-56
2022/05/24 00:11:56;;;;;;;13.25;11.85;;;15.70;99.90;;;;;;5033429;28;20100;-55
2022/05/24 00:17:06;;;;;;;14.00;12.13;;;15.60;99.90;;;;;;5033559;28;20075;-51
2022/05/24 00:19:33;;;;;;;14.10;11.52;;;15.60;99.90;;;;;;5033170;28;20402;-54
2022/05/24 00:21:58;;;;;;;14.57;10.98;;;15.60;99.90;;;;;;5032051;28;20051;-52
2022/05/24 00:24:24;;;;;;;12.85;10.60;;;15.60;99.90;;;;;;5033194;28;20100;-52
2022/05/24 00:26:49;;;;;;;13.55;11.38;;;15.50;99.90;;;;;;5033592;28;20536;-51
2022/05/24 00:29:15;;;;;;;14.90;10.82;;;15.50;99.90;;;;;;5032986;28;20030;-52
2022/05/24 00:31:40;;;;;;;14.27;11.15;;;15.50;99.90;;;;;;5033456;28;20029;-56
2022/05/24 00:34:06;;;;;;;15.27;11.65;;;15.40;99.90;;;;;;5034362;28;20483;-52
2022/05/24 00:36:32;;;;;;;12.82;9.77;;;15.40;99.90;;;;;;5033913;28;20029;-54
2022/05/24 00:38:57;;;;;;;14.20;10.80;;;15.40;99.90;;;;;;5033796;28;20121;-52
2022/05/24 00:41:36;;;;;;;16.90;11.75;;;15.30;99.90;;;;;;5033068;28;20040;-52
2022/05/24 00:44:06;;;;;;;17.13;11.85;;;15.20;99.90;;;;;;5034125;28;20025;-53
2022/05/24 00:46:43;;;;;;;16.33;12.02;;;15.20;99.90;;;;;;5036797;28;20021;-54
2022/05/24 00:49:14;;;;;;;15.07;12.27;;;15.10;99.90;;;;;;5019673;28;20029;-55
2022/05/24 00:51:47;;;;;;;16.00;12.82;;;15.10;99.90;;;;;;5019320;28;20026;-53
2022/05/24 00:54:14;;;;;;;16.52;11.65;;;15.20;99.90;;;;;;5036954;28;20116;-53
2022/05/24 00:56:48;;;;;;;18.33;12.43;;;15.20;99.90;;;;;;5036987;28;20025;-53
2022/05/24 00:59:22;;;;;;;17.50;12.88;;;15.20;99.90;;;;;;5036923;28;20029;-55
2022/05/24 01:01:48;;;;;;;19.88;13.02;;;15.20;99.90;;;;;;5036616;28;20410;-54
2022/05/24 01:04:22;;;;;;;20.38;14.57;;;15.20;99.90;;;;;;5036774;28;20025;-52
2022/05/24 01:06:49;;;;;;;19.20;15.30;;;15.20;99.90;;;;;;5036616;28;20033;-53
2022/05/24 01:09:22;;;;;;;21.33;13.88;;;15.20;99.90;;;;;;5036686;28;20099;-53
2022/05/24 01:11:54;;;;;;;21.15;14.43;;;15.20;99.90;;;;;;5036565;28;20033;-53
2022/05/24 01:14:22;;;;;;;18.35;13.77;;;15.20;99.90;;;;;;5036602;28;20036;-53
2022/05/24 01:16:47;;;;;;;18.42;14.13;;;15.30;99.90;;;;;;5018787;28;20052;-55
2022/05/24 01:19:32;;;;;;;20.83;14.35;;;15.30;99.90;;;;;;5036381;28;20025;-54
2022/05/24 01:22:15;;;;;;;19.85;12.48;;;15.20;99.90;;;;;;5018555;28;20112;-54
2022/05/24 01:24:49;;;;;;;16.73;12.52;;;15.20;99.90;;;;;;5019344;28;20424;-52
2022/05/24 01:27:15;;;;;;;22.40;12.82;;;15.20;99.90;;;;;;5036981;28;20105;-52
2022/05/24 01:29:40;;;;;;;19.38;13.70;;;15.20;99.90;;;;;;5036962;28;20486;-54
2022/05/24 01:37:35;;;;;;;15.65;11.98;;;15.20;99.90;;;;;;5036350;28;20068;-51
2022/05/24 01:40:04;;;;;;;17.15;11.38;;;15.20;99.90;;;;;;5036573;28;20041;-53
2022/05/24 01:42:30;;;;;;;19.73;12.20;;;15.20;99.90;;;;;;5035907;28;20578;-53
2022/05/24 01:45:03;;;;;;;15.95;11.18;;;15.20;99.90;;;;;;5036216;28;20038;-54
2022/05/24 01:47:31;;;;;;;18.05;11.23;;;15.20;99.90;;;;;;5036949;28;20402;-53
2022/05/24 01:50:00;;;;;;;15.80;11.38;;;15.20;99.90;;;;;;5036155;28;20453;-56
2022/05/24 01:52:35;;;;;;;12.05;9.93;;;15.30;99.90;;;;;;5035614;28;20036;-53
2022/05/24 01:55:16;;;;;;;15.70;10.07;;;15.20;99.90;;;;;;5035979;28;20479;-54
2022/05/24 01:57:46;;;;;;;14.85;9.40;;;15.30;99.90;;;;;;5035552;28;20069;-52
2022/05/24 02:00:14;;;;;;;13.67;9.70;;;15.30;99.90;;;;;;5035956;28;20025;-53
2022/05/24 02:02:41;;;;;;;14.73;9.02;;;15.20;99.90;;;;;;5035629;28;20041;-54
2022/05/24 02:05:07;;;;;;;10.45;7.93;;;15.20;99.90;;;;;;5035584;28;20037;-54
2022/05/24 02:07:33;;;;;;;11.82;7.72;;;15.10;99.90;;;;;;5035869;28;20025;-51
2022/05/24 02:09:59;;;;;;;12.13;8.20;;;15.10;99.90;;;;;;5036074;28;20032;-54
2022/05/24 02:12:32;;;;;;;12.70;8.32;;;15.10;99.90;;;;;;5035563;28;20053;-55
2022/05/24 02:15:11;;;;;;;13.13;8.35;;;15.00;99.90;;;;;;5035819;28;20026;-55
2022/05/24 02:18:01;;;;;;;12.77;7.97;;;15.10;99.90;;;;;;5035405;28;20036;-51
2022/05/24 02:20:34;;;;;;;12.37;8.63;;;15.00;99.90;;;;;;5035456;28;20033;-52
2022/05/24 02:23:00;;;;;;;13.80;8.20;;;15.10;99.90;;;;;;5035559;28;20033;-51
2022/05/24 02:25:40;;;;;;;13.45;8.85;;;15.10;99.90;;;;;;5017315;28;20025;-53
2022/05/24 02:28:10;;;;;;;12.18;9.10;;;15.10;99.90;;;;;;5035356;28;20052;-54
2022/05/24 02:31:00;;;;;;;11.23;8.48;;;15.10;99.90;;;;;;5034976;28;20491;-54
2022/05/24 02:33:25;;;;;;;11.23;8.02;;;15.10;99.90;;;;;;5035314;28;20108;-53
2022/05/24 02:35:51;;;;;;;11.63;9.00;;;15.20;99.90;;;;;;5035308;28;20139;-52
2022/05/24 02:38:19;;;;;;;13.88;8.82;;;15.20;99.90;;;;;;5017695;28;20025;-51
2022/05/24 02:43:29;;;;;;;11.73;7.60;;;15.10;99.90;;;;;;5035542;28;20021;-52
2022/05/24 02:45:55;;;;;;;11.70;7.85;;;15.10;99.90;;;;;;5017162;28;20029;-53
2022/05/24 02:48:20;;;;;;;9.68;7.05;;;15.20;99.90;;;;;;5035217;28;20466;-53
2022/05/24 02:50:46;;;;;;;10.15;6.95;;;15.20;99.90;;;;;;5034845;28;20048;-51
2022/05/24 02:53:11;;;;;;;10.90;7.22;;;15.20;99.90;;;;;;5035210;28;20029;-56
2022/05/24 02:55:37;;;;;;;8.63;7.03;;;15.10;99.90;;;;;;5035272;28;20108;-51
2022/05/24 02:58:03;;;;;;;8.77;6.57;;;15.10;99.90;;;;;;5034929;28;20025;-53
2022/05/24 03:00:29;;;;;;;10.40;6.95;;;15.10;99.90;;;;;;5034735;28;20026;-54
2022/05/24 03:02:55;;;;;;;8.38;7.07;;;15.00;99.90;;;;;;5034857;28;20033;-55
2022/05/24 03:05:22;;;;;;;9.30;7.15;;;15.00;99.90;;;;;;5017637;28;20112;-51
2022/05/24 03:10:33;;;;;;;8.13;6.85;;;15.00;99.90;;;;;;5034496;28;20032;-52
2022/05/24 03:15:44;;;;;;;9.35;7.15;;;15.00;99.90;;;;;;5034680;28;20125;-52
2022/05/24 03:18:11;;;;;;;11.32;7.80;;;15.00;99.90;;;;;;5034620;28;20510;-52
2022/05/24 03:20:41;;;;;;;12.32;7.32;;;15.00;99.90;;;;;;5034072;28;20068;-54
2022/05/24 03:23:06;;;;;;;13.93;8.20;;;15.00;99.90;;;;;;5034531;28;20026;-51
2022/05/24 03:25:33;;;;;;;10.75;7.93;;;14.90;99.90;;;;;;5034394;28;20022;-51
2022/05/24 03:27:59;;;;;;;15.73;9.27;;;14.90;99.90;;;;;;5034353;28;20057;-53
2022/05/24 03:30:26;;;;;;;12.60;8.45;;;15.00;99.90;;;;;;5017118;28;20025;-51
2022/05/24 03:32:52;;;;;;;13.02;8.25;;;15.00;99.90;;;;;;5034094;28;20172;-52
2022/05/24 03:35:19;;;;;;;12.13;7.80;;;15.00;99.90;;;;;;5034317;28;20049;-53
2022/05/24 03:37:44;;;;;;;11.52;8.63;;;15.00;99.90;;;;;;5034319;28;20018;-51
2022/05/24 03:40:10;;;;;;;13.75;8.90;;;15.00;99.90;;;;;;5034252;28;20036;-52
2022/05/24 03:42:37;;;;;;;16.05;10.07;;;14.90;99.90;;;;;;5034061;28;20398;-55
2022/05/24 03:45:04;;;;;;;11.63;9.23;;;15.00;99.90;;;;;;5032820;28;20053;-55
2022/05/24 03:47:30;;;;;;;14.15;9.35;;;14.90;99.90;;;;;;5034863;28;20124;-54
2022/05/24 03:49:56;;;;;;;12.32;10.52;;;14.80;99.90;;;;;;5035450;28;20053;-52
2022/05/24 03:52:21;;;;;;;13.73;9.90;;;14.90;99.90;;;;;;5034561;28;20029;-54
2022/05/24 03:54:47;;;;;;;11.10;8.52;;;14.80;99.90;;;;;;5034615;28;20108;-55
2022/05/24 03:59:56;;;;;;;17.83;10.15;;;14.70;99.90;;;;;;5034691;28;20040;-55
2022/05/24 04:02:22;;;;;;;12.15;10.00;;;14.70;99.90;;;;;;5033982;28;20038;-55
2022/05/24 04:04:47;;;;;;;13.43;10.40;;;14.70;99.90;;;;;;5033913;28;20025;-54
2022/05/24 04:07:13;;;;;;;14.38;10.32;;;14.70;99.90;;;;;;5033931;28;20072;-54
2022/05/24 04:09:39;;;;;;;13.85;9.55;;;14.70;99.90;;;;;;5034097;28;20086;-56
2022/05/24 04:12:05;;;;;;;14.38;10.80;;;14.70;99.90;;;;;;5033926;28;20163;-55
2022/05/24 04:14:32;;;;;;;15.57;11.35;;;14.60;99.90;;;;;;5034314;28;20029;-56
2022/05/24 04:16:58;;;;;;;14.50;10.57;;;14.60;99.90;;;;;;5034310;28;20499;-52
2022/05/24 04:19:24;;;;;;;13.35;9.63;;;14.60;99.90;;;;;;5033244;28;20048;-51
2022/05/24 04:21:49;;;;;;;14.98;10.95;;;14.60;99.90;;;;;;5033599;28;20152;-51
2022/05/24 04:24:15;;;;;;;14.43;10.15;;;14.60;99.90;;;;;;5034535;28;20049;-55
2022/05/24 04:26:41;;;;;;;16.30;11.38;;;14.60;99.90;;;;;;5033989;28;20108;-53
2022/05/24 04:29:07;;;;;;;14.23;9.73;;;14.60;99.90;;;;;;4999423;28;20022;-52
2022/05/24 04:31:32;;;;;;;12.57;10.45;;;14.60;99.90;;;;;;5015573;28;20037;-53
2022/05/24 04:33:58;;;;;;;13.80;10.38;;;14.60;99.90;;;;;;5033261;28;20429;-51
2022/05/24 04:36:24;;;;;;;16.27;10.77;;;14.60;99.90;;;;;;5033568;28;20079;-53
2022/05/24 04:38:50;;;;;;;12.40;9.52;;;14.70;99.90;;;;;;5033614;28;20026;-55
2022/05/24 04:43:59;;;;;;;15.00;9.85;;;14.70;99.90;;;;;;5033818;28;20032;-51
2022/05/24 04:46:25;;;;;;;14.18;9.63;;;14.70;99.90;;;;;;5033394;28;20022;-55
2022/05/24 04:48:51;;;;;;;14.77;10.98;;;14.70;99.90;;;;;;5015920;28;20049;-52
2022/05/24 04:51:16;;;;;;;13.20;9.25;;;14.80;99.90;;;;;;5033465;28;20061;-55
2022/05/24 04:53:42;;;;;;;12.07;9.73;;;14.80;99.90;;;;;;5033401;28;20542;-53
2022/05/24 04:56:07;;;;;;;17.50;10.25;;;14.80;99.90;;;;;;5033311;28;20025;-55
2022/05/24 04:58:33;;;;;;;13.55;9.90;;;14.90;99.90;;;;;;5033420;28;20042;-55
2022/05/24 05:00:59;;;;;;;13.32;9.90;;;14.90;99.90;;;;;;5015327;28;20025;-54
2022/05/24 05:03:24;;;;;;;17.80;9.90;;;15.00;99.90;;;;;;5032816;28;20026;-53
2022/05/24 05:05:51;;;;;;;15.65;10.18;;;15.00;99.90;;;;;;5015573;28;20457;-53
2022/05/24 05:08:18;;;;;;;15.27;9.95;;;15.10;99.90;;;;;;5033176;28;20109;-52
2022/05/24 05:10:43;;;;;;;14.02;9.70;;;15.20;99.90;;;;;;5033391;28;20017;-54
2022/05/24 05:13:09;;;;;;;12.77;9.45;;;15.20;99.90;;;;;;5033281;28;20057;-53
2022/05/24 05:15:37;;;;;;;13.13;10.45;;;15.30;99.90;;;;;;5016087;28;20482;-56
2022/05/24 05:18:05;;;;;;;14.75;10.10;;;15.40;99.90;;;;;;5033531;28;20052;-52
2022/05/24 05:20:39;;;;;;;13.75;9.38;;;15.50;99.90;;;;;;5033092;28;20491;-53
2022/05/24 05:23:05;;;;;;;17.88;10.18;;;15.60;99.90;;;;;;5033253;28;20021;-51
2022/05/24 05:25:31;;;;;;;18.20;10.40;;;15.60;99.90;;;;;;5033312;28;20048;-52
2022/05/24 05:27:56;;;;;;;14.55;9.50;;;15.60;99.90;;;;;;5033521;28;20033;-55
2022/05/24 05:33:07;;;;;;;16.35;9.77;;;15.60;99.90;;;;;;5037478;28;20028;-53
2022/05/24 05:35:32;;;;;;;13.15;10.50;;;15.60;99.90;;;;;;5039118;28;20032;-55
2022/05/24 05:37:58;;;;;;;13.50;10.73;;;15.60;99.90;;;;;;5048361;28;20021;-52
2022/05/24 05:40:24;;;;;;;14.82;10.60;;;15.60;99.90;;;;;;5048118;28;20104;-55
2022/05/24 05:42:50;;;;;;;16.10;11.20;;;15.60;99.90;;;;;;5046188;28;20505;-50
2022/05/24 05:45:16;;;;;;;15.15;11.30;;;15.60;99.90;;;;;;5047739;28;20013;-54
2022/05/24 05:47:41;;;;;;;17.50;12.48;;;15.50;99.90;;;;;;5046057;28;20009;-52
2022/05/24 05:50:07;;;;;;;22.23;13.27;;;15.60;99.90;;;;;;5046327;28;20060;-53
2022/05/24 05:52:33;;;;;;;18.75;13.00;;;15.50;99.90;;;;;;5046918;28;20025;-55
2022/05/24 05:54:59;;;;;;;19.42;13.60;;;15.60;99.90;;;;;;5027300;28;20536;-51
2022/05/24 05:57:24;;;;;;;19.42;14.10;;;15.60;99.90;;;;;;5045779;28;20486;-53
2022/05/24 05:59:52;;;;;;;24.23;14.77;;;15.60;99.90;;;;;;5046438;28;20037;-56
2022/05/24 06:02:17;;;;;;;19.70;14.55;;;15.70;99.90;;;;;;5044760;28;20022;-52
2022/05/24 06:04:43;;;;;;;21.10;15.27;;;15.70;99.90;;;;;;5025452;28;20048;-52
2022/05/24 06:07:09;;;;;;;23.25;16.33;;;15.80;99.90;;;;;;5044553;28;20074;-54
2022/05/24 06:09:34;;;;;;;24.98;17.00;;;15.90;99.90;;;;;;5055905;28;20021;-55
2022/05/24 06:12:00;;;;;;;21.08;16.17;;;16.00;99.90;;;;;;5056060;28;20508;-53
2022/05/24 06:14:26;;;;;;;22.88;16.38;;;16.10;99.90;;;;;;5027990;28;20033;-50
2022/05/24 06:16:52;;;;;;;28.08;18.58;;;16.20;99.90;;;;;;5047669;28;20426;-54
2022/05/24 06:19:17;;;;;;;21.88;16.33;;;16.20;99.90;;;;;;5055566;28;20474;-54
2022/05/24 06:21:43;;;;;;;23.23;17.33;;;16.10;99.90;;;;;;5046610;28;20044;-53
2022/05/24 06:24:08;;;;;;;29.23;18.95;;;16.10;99.90;;;;;;5042119;28;20029;-52
2022/05/24 06:26:35;;;;;;;28.13;20.25;;;16.20;99.90;;;;;;5045833;28;20433;-51
2022/05/24 06:29:01;;;;;;;25.73;19.23;;;16.20;99.90;;;;;;5042799;28;20489;-54
2022/05/24 06:31:27;;;;;;;29.52;19.10;;;16.30;99.90;;;;;;5050420;28;20033;-53
2022/05/24 06:33:53;;;;;;;26.77;19.98;;;16.30;99.90;;;;;;5037132;28;20025;-51
2022/05/24 06:36:18;;;;;;;29.75;20.02;;;16.40;99.90;;;;;;5045052;28;20127;-52
2022/05/24 06:38:44;;;;;;;28.30;19.55;;;16.50;99.90;;;;;;5055121;28;20048;-53
2022/05/24 06:41:10;;;;;;;35.22;21.38;;;16.60;99.90;;;;;;5054895;28;20106;-55
2022/05/24 06:43:36;;;;;;;31.90;22.42;;;16.60;99.90;;;;;;5054994;28;20025;-51
2022/05/24 06:46:09;;;;;;;34.67;21.85;;;16.60;99.90;;;;;;5054668;28;20025;-51
2022/05/24 06:48:40;;;;;;;32.03;21.75;;;16.50;99.90;;;;;;5054960;28;20466;-51
2022/05/24 06:51:10;;;;;;;30.20;20.88;;;16.50;99.90;;;;;;5055514;28;20032;-51
2022/05/24 06:53:38;;;;;;;34.95;22.27;;;16.50;99.90;;;;;;5054991;28;20123;-54
2022/05/24 06:56:04;;;;;;;30.02;20.95;;;16.60;99.90;;;;;;5055204;28;20036;-52
2022/05/24 06:58:31;;;;;;;28.17;19.35;;;16.70;99.90;;;;;;5054909;28;20037;-54
2022/05/24 07:03:40;;;;;;;28.45;20.02;;;16.80;99.90;;;;;;5054412;28;20413;-53
2022/05/24 07:06:06;;;;;;;30.83;20.52;;;16.80;99.90;;;;;;5054746;28;20100;-53
2022/05/24 07:08:32;;;;;;;32.75;20.00;;;16.90;99.90;;;;;;5054853;28;20021;-54
2022/05/24 07:10:57;;;;;;;31.35;21.00;;;17.10;99.90;;;;;;5055827;28;20029;-51
2022/05/24 07:13:23;;;;;;;32.50;20.73;;;17.20;99.90;;;;;;5055510;28;20025;-55
2022/05/24 07:15:49;;;;;;;33.78;21.30;;;17.20;99.90;;;;;;5038265;28;20021;-52
2022/05/24 07:18:15;;;;;;;32.22;21.48;;;17.20;99.90;;;;;;5054550;28;20025;-54
2022/05/24 07:20:41;;;;;;;26.98;20.13;;;17.40;99.90;;;;;;5054227;28;20543;-53
2022/05/24 07:23:17;;;;;;;27.92;19.20;;;17.50;99.90;;;;;;5054677;28;20112;-52
2022/05/24 07:25:44;;;;;;;23.42;18.33;;;17.60;99.90;;;;;;5054435;28;20025;-55
2022/05/24 07:28:12;;;;;;;26.30;18.70;;;17.80;99.90;;;;;;5054499;28;20032;-54
2022/05/24 07:30:38;;;;;;;29.35;20.40;;;17.80;99.90;;;;;;5054233;28;20029;-54
2022/05/24 07:33:04;;;;;;;29.30;20.10;;;17.80;99.90;;;;;;5054265;28;20111;-52
2022/05/24 07:35:30;;;;;;;26.45;20.23;;;17.80;99.90;;;;;;5054460;28;20088;-52
2022/05/24 07:37:55;;;;;;;29.27;18.65;;;17.70;99.90;;;;;;5053823;28;20170;-54
2022/05/24 07:45:54;;;;;;;29.73;20.20;;;17.70;99.90;;;;;;5053635;28;20223;-51
2022/05/24 07:48:20;;;;;;;27.48;19.55;;;17.60;99.90;;;;;;5053846;28;20046;-50
2022/05/24 07:50:46;;;;;;;31.40;20.13;;;17.40;99.90;;;;;;5053635;28;20493;-52
2022/05/24 07:53:13;;;;;;;29.40;19.58;;;17.30;99.90;;;;;;5053345;28;20056;-50
2022/05/24 07:55:39;;;;;;;28.80;19.27;;;17.20;99.90;;;;;;5053306;28;20398;-52
2022/05/24 07:58:05;;;;;;;34.95;23.15;;;17.10;99.90;;;;;;5053538;28;20024;-53
2022/05/24 08:00:30;;;;;;;32.30;22.58;;;17.00;99.90;;;;;;5053595;28;20112;-50
2022/05/24 08:02:56;;;;;;;34.75;24.23;;;16.80;99.90;;;;;;5053090;28;20033;-51
2022/05/24 08:05:22;;;;;;;32.42;22.42;;;16.70;99.90;;;;;;5053908;28;20484;-51
2022/05/24 08:07:54;;;;;;;38.67;23.80;;;16.50;99.90;;;;;;5036413;28;20063;-50
2022/05/24 08:10:19;;;;;;;40.63;27.15;;;16.20;99.90;;;;;;5053435;28;20066;-52
2022/05/24 08:12:45;;;;;;;38.47;24.48;;;16.10;99.90;;;;;;5053087;28;20021;-51
2022/05/24 08:15:12;;;;;;;37.47;25.05;;;15.90;99.90;;;;;;5035383;28;20025;-51
2022/05/24 08:17:38;;;;;;;40.35;26.08;;;15.90;99.90;;;;;;5052969;28;20509;-51
2022/05/24 08:20:05;;;;;;;40.95;25.65;;;15.80;99.90;;;;;;5053031;28;20063;-51
2022/05/24 08:22:31;;;;;;;44.28;26.88;;;15.80;99.90;;;;;;5053023;28;20025;-52
2022/05/24 08:24:56;;;;;;;40.22;25.15;;;15.70;99.90;;;;;;5053409;28;20032;-50
2022/05/24 08:27:22;;;;;;;41.78;25.58;;;15.70;99.90;;;;;;5052979;28;20478;-51
2022/05/24 08:29:48;;;;;;;38.08;24.75;;;15.70;99.90;;;;;;5053137;28;20466;-52
2022/05/24 08:32:13;;;;;;;37.22;24.77;;;15.70;99.90;;;;;;5052786;28;20032;-50
2022/05/24 08:34:39;;;;;;;40.33;23.73;;;15.70;99.90;;;;;;5053315;28;20035;-50
2022/05/24 08:37:06;;;;;;;37.97;25.00;;;15.70;99.90;;;;;;5053273;28;20021;-50
2022/05/24 08:39:32;;;;;;;33.50;22.75;;;15.80;99.90;;;;;;5052891;28;20017;-50
2022/05/24 08:42:09;;;;;;;37.15;23.40;;;15.70;99.90;;;;;;5052808;28;20040;-51
2022/05/24 08:50:19;;;;;;;30.67;20.17;;;15.50;99.90;;;;;;5053207;28;20031;-50
2022/05/24 08:52:50;;;;;;;27.80;19.85;;;15.50;99.90;;;;;;5052865;28;20082;-50
2022/05/24 08:55:17;;;;;;;25.63;18.83;;;15.50;99.90;;;;;;5053212;28;20025;-51
2022/05/24 08:57:51;;;;;;;33.58;20.73;;;15.50;99.90;;;;;;5052906;28;20029;-51
2022/05/24 09:00:27;;;;;;;30.65;18.70;;;15.50;99.90;;;;;;5052749;28;20379;-51
2022/05/24 09:02:53;;;;;;;27.52;18.80;;;15.50;99.90;;;;;;5052521;28;20060;-51
2022/05/24 09:05:32;;;;;;;23.75;16.63;;;15.50;99.90;;;;;;5052718;28;20394;-51
2022/05/24 09:08:34;;;;;;;21.67;14.50;;;15.40;99.90;;;;;;5038475;28;20029;-54
2022/05/24 09:11:31;;;;;;;22.90;16.15;;;15.30;99.90;;;;;;5056320;28;20033;-51
2022/05/24 09:14:15;;;;;;;21.42;14.77;;;15.20;99.90;;;;;;5056561;28;20021;-52
2022/05/24 09:17:10;;;;;;;23.77;14.10;;;15.20;99.90;;;;;;5056445;28;20436;-52
2022/05/24 09:19:39;;;;;;;23.45;14.25;;;15.20;99.90;;;;;;5056567;28;20037;-50
2022/05/24 09:22:06;;;;;;;26.35;14.95;;;15.30;99.90;;;;;;5056361;28;20040;-51
2022/05/24 09:24:34;;;;;;;20.95;14.55;;;15.30;99.90;;;;;;5038221;28;20021;-53
2022/05/24 09:27:04;;;;;;;22.65;14.35;;;15.30;99.90;;;;;;5056307;28;20102;-52
2022/05/24 09:29:31;;;;;;;21.35;13.75;;;15.30;99.90;;;;;;5056678;28;20478;-51
2022/05/24 09:32:02;;;;;;;21.90;14.07;;;15.30;99.90;;;;;;5056358;28;20098;-54
2022/05/24 09:34:33;;;;;;;21.75;14.05;;;15.30;99.90;;;;;;5055899;28;20025;-52
2022/05/24 09:37:03;;;;;;;;;;;15.30;99.90;;;;;;5056150;28;20075;-54
2022/05/24 09:39:35;;;;;;;21.15;13.13;;;15.30;99.90;;;;;;5056318;28;19952;-50
2022/05/24 09:42:03;;;;;;;18.77;12.48;;;15.20;99.90;;;;;;5056036;28;20111;-51
2022/05/24 09:44:41;;;;;;;21.98;12.82;;;15.20;99.90;;;;;;5055916;28;20103;-50
2022/05/24 09:47:28;;;;;;;18.98;12.25;;;15.20;99.90;;;;;;5038654;28;20075;-50
2022/05/24 09:50:14;;;;;;;20.40;13.02;;;15.20;99.90;;;;;;5056307;28;20028;-51
2022/05/24 09:52:39;;;;;;;24.52;12.75;;;15.30;99.90;;;;;;5055359;28;20036;-48
2022/05/24 09:55:05;;;;;;;22.27;13.60;;;15.50;99.90;;;;;;5055596;28;20474;-51
2022/05/24 09:57:34;;;;;;;23.40;13.25;;;15.60;99.90;;;;;;5055492;28;20065;-50
2022/05/24 10:00:20;;;;;;;23.33;13.10;;;15.70;99.90;;;;;;5055372;28;20064;-54
2022/05/24 10:02:47;;;;;;;22.35;15.43;;;15.80;99.90;;;;;;5063427;22;20390;-50
2022/05/24 10:05:22;;;;;;;23.60;15.70;;;16.00;99.90;;;;;;5055403;28;20088;-53
2022/05/24 10:08:02;;;;;;;30.13;17.00;;;16.10;99.90;;;;;;5055466;28;20021;-50
2022/05/24 10:10:39;;;;;;;25.83;14.60;;;16.30;99.90;;;;;;5055124;28;20052;-50
2022/05/24 10:13:16;;;;;;;19.15;13.10;;;16.40;99.90;;;;;;5055385;28;20052;-51
2022/05/24 10:15:54;;;;;;;17.15;12.52;;;16.40;99.90;;;;;;5055153;28;20025;-51
2022/05/24 10:18:36;;;;;;;18.48;12.73;;;16.40;99.90;;;;;;5054432;28;20029;-51
2022/05/24 10:21:20;;;;;;;18.65;12.13;;;16.50;99.90;;;;;;5054879;28;20029;-52
2022/05/24 10:24:04;;;;;;;19.83;11.65;;;16.60;99.90;;;;;;5055031;28;20070;-54
2022/05/24 10:26:47;;;;;;;20.35;12.75;;;16.70;99.90;;;;;;5054858;28;20100;-51
2022/05/24 10:29:22;;;;;;;16.65;13.00;;;16.90;99.90;;;;;;5055485;28;20024;-51
2022/05/24 10:31:56;;;;;;;19.13;12.77;;;17.20;99.90;;;;;;5054920;28;20032;-52
2022/05/24 10:40:16;;;;;;;19.67;11.50;;;17.60;99.90;;;;;;5055128;28;20040;-52
2022/05/24 10:43:00;;;;;;;18.50;11.83;;;17.50;99.90;;;;;;5053947;28;20068;-53
2022/05/24 10:45:51;;;;;;;16.15;10.75;;;17.40;99.90;;;;;;5053608;28;20074;-51
2022/05/24 10:48:22;;;;;;;;;;;17.30;99.90;;;;;;5054937;28;20025;-52
2022/05/24 10:50:53;;;;;;;16.48;11.10;;;17.40;99.90;;;;;;5036378;28;19954;-54
2022/05/24 10:53:42;;;;;;;14.52;10.55;;;17.30;99.90;;;;;;5054704;28;20021;-53
2022/05/24 10:56:47;;;;;;;18.75;11.27;;;17.40;99.90;;;;;;5054748;28;20039;-50
2022/05/24 10:59:38;;;;;;;14.40;9.43;;;17.40;99.90;;;;;;5038794;28;20090;-51
2022/05/24 11:02:22;;;;;;;11.82;9.15;;;17.50;99.90;;;;;;5042969;28;20474;-51
2022/05/24 11:04:53;;;;;;;14.05;9.30;;;17.70;99.90;;;;;;5034790;28;20076;-51
2022/05/24 11:07:20;;;;;;;12.80;9.55;;;17.80;99.90;;;;;;5034919;28;20022;-54
2022/05/24 11:10:06;;;;;;;13.98;9.68;;;17.90;99.90;;;;;;5035313;28;20053;-53
2022/05/24 11:12:42;;;;;;;12.15;7.80;;;18.00;99.90;;;;;;5036256;28;20029;-54
2022/05/24 11:15:36;;;;;;;9.93;7.53;;;18.10;99.90;;;;;;5030123;28;20029;-53
2022/05/24 11:18:10;;;;;;;11.63;7.30;;;18.10;99.90;;;;;;5045680;28;20155;-54
2022/05/24 11:20:41;;;;;;;10.65;7.30;;;18.00;99.90;;;;;;5045782;28;20026;-53
2022/05/24 11:23:26;;;;;;;14.25;7.90;;;17.90;99.90;;;;;;5041066;28;20033;-54
2022/05/24 11:26:27;;;;;;;10.98;7.13;;;17.70;99.90;;;;;;5019353;28;20475;-52
2022/05/24 11:28:58;;;;;;;11.73;7.22;;;17.50;99.90;;;;;;5041455;28;20045;-50
2022/05/24 11:31:29;;;;;;;10.30;7.47;;;17.50;99.90;;;;;;5034022;28;20028;-50
2022/05/24 11:33:57;;;;;;;9.80;6.85;;;17.40;99.90;;;;;;5033884;28;20204;-50
2022/05/24 11:36:48;;;;;;;15.98;7.50;;;17.50;99.90;;;;;;5045037;28;20029;-49
2022/05/24 11:39:26;;;;;;;12.32;8.10;;;17.50;99.90;;;;;;5053943;28;20422;-51
2022/05/24 11:42:24;;;;;;;12.05;8.30;;;17.50;99.90;;;;;;5053335;28;20025;-51
2022/05/24 11:44:51;;;;;;;22.63;12.27;;;17.40;99.90;;;;;;5053076;28;20048;-50
2022/05/24 11:47:35;;;;;;;12.48;9.35;;;17.30;99.90;;;;;;5053477;28;20021;-50
2022/05/24 11:50:30;;;;;;;19.15;9.50;;;17.30;99.90;;;;;;5053546;28;20074;-50
2022/05/24 11:53:15;;;;;;;9.35;7.53;;;17.50;99.90;;;;;;5053040;28;20482;-51
2022/05/24 11:55:47;;;;;;;13.02;6.97;;;17.70;99.90;;;;;;5053409;28;20123;-51
2022/05/24 11:58:22;;;;;;;9.98;7.03;;;17.90;99.90;;;;;;5053545;28;20025;-52
2022/05/24 12:01:09;;;;;;;11.35;7.60;;;18.00;99.90;;;;;;5037565;28;20044;-50
2022/05/24 12:10:09;;;;;;;10.23;5.95;;;18.50;99.90;;;;;;5049639;28;20027;-51
2022/05/24 12:12:45;;;;;;;9.88;5.90;;;18.70;99.90;;;;;;5053311;28;20025;-50
2022/05/24 12:15:26;;;;;;;7.60;5.13;;;18.70;99.90;;;;;;5053285;28;20131;-54
2022/05/24 12:18:24;;;;;;;7.97;5.45;;;18.70;99.90;;;;;;5052968;28;20033;-51
2022/05/24 12:20:49;;;;;;;10.82;5.07;;;18.80;99.90;;;;;;5052983;28;20025;-53
2022/05/24 12:23:33;;;;;;;8.18;4.88;;;18.90;99.90;;;;;;5053309;28;20028;-52
2022/05/24 12:26:03;;;;;;;7.30;4.53;;;18.90;99.90;;;;;;5052875;28;20100;-50
2022/05/24 12:28:44;;;;;;;7.15;4.70;;;19.00;99.90;;;;;;5053037;28;20053;-51
2022/05/24 12:31:13;;;;;;;6.50;4.40;;;18.90;99.90;;;;;;5052887;28;20029;-51
2022/05/24 12:33:50;;;;;;;6.65;5.10;;;19.00;99.90;;;;;;5053098;28;20039;-50
2022/05/24 12:36:30;;;;;;;7.43;4.45;;;19.00;99.90;;;;;;5053026;28;20029;-54
2022/05/24 12:39:12;;;;;;;9.70;5.47;;;19.10;99.90;;;;;;5048455;28;20033;-50
2022/05/24 12:41:55;;;;;;;5.35;4.78;;;19.00;99.90;;;;;;5048077;28;20471;-53
2022/05/24 12:44:22;;;;;;;5.82;4.68;;;19.10;99.90;;;;;;5039060;28;20080;-49
2022/05/24 12:46:57;;;;;;;10.40;4.85;;;19.30;99.90;;;;;;5055050;28;20400;-51
2022/05/24 12:49:28;;;;;;;6.55;4.28;;;19.40;99.90;;;;;;5057089;28;20021;-49
2022/05/24 12:52:00;;;;;;;5.35;4.78;;;19.30;99.90;;;;;;5056781;28;20112;-50
2022/05/24 12:54:33;;;;;;;8.02;4.10;;;19.10;99.90;;;;;;5056840;28;20021;-51
2022/05/24 12:57:06;;;;;;;8.32;4.30;;;18.90;99.90;;;;;;5056805;28;20028;-51
2022/05/24 12:59:40;;;;;;;6.63;4.60;;;18.80;99.90;;;;;;5056663;28;20041;-51
2022/05/24 13:02:41;;;;;;;5.63;4.93;;;18.70;99.90;;;;;;5056183;28;20032;-51
2022/05/24 13:05:06;;;;;;;5.95;4.55;;;18.60;99.90;;;;;;5057962;28;20074;-50
2022/05/24 13:07:45;;;;;;;9.27;4.57;;;18.50;99.90;;;;;;5056746;28;20092;-51
2022/05/24 13:10:34;;;;;;;6.30;3.72;;;18.30;99.90;;;;;;5056269;28;20040;-49
2022/05/24 13:13:06;;;;;;;5.88;4.18;;;18.10;99.90;;;;;;5046461;28;20047;-51
2022/05/24 13:15:58;;;;;;;4.57;3.53;;;18.10;99.90;;;;;;5056498;28;20036;-51
2022/05/24 13:18:31;;;;;;;8.02;5.30;;;18.10;99.90;;;;;;5056104;28;20522;-52
2022/05/24 13:21:00;;;;;;;8.60;4.68;;;18.00;99.90;;;;;;5046216;28;20032;-52
2022/05/24 13:23:30;;;;;;;7.03;4.60;;;18.00;99.90;;;;;;5046535;28;20442;-53
2022/05/24 13:26:02;;;;;;;10.95;5.03;;;17.90;99.90;;;;;;5051148;28;20083;-53
2022/05/24 13:28:31;;;;;;;;;;;17.90;99.90;;;;;;5041116;28;20029;-51
2022/05/24 13:33:49;;;;;;;7.82;4.65;;;18.20;99.90;;;;;;5043222;28;20077;-54
2022/05/24 13:36:22;;;;;;;6.63;4.55;;;18.30;99.90;;;;;;5038647;28;20033;-53
2022/05/24 13:39:07;;;;;;;4.60;4.18;;;18.30;99.90;;;;;;5035753;28;20056;-53
2022/05/24 13:41:38;;;;;;;8.18;4.65;;;18.30;99.90;;;;;;5035901;28;20108;-51
2022/05/24 13:44:20;;;;;;;9.77;4.80;;;18.60;99.90;;;;;;5035889;28;20026;-52
2022/05/24 13:47:02;;;;;;;5.32;4.00;;;18.80;99.90;;;;;;5035665;28;20033;-50